Maersk Volta — 9V2317 — position and weather

sailwx.info

Track history (hours):
 
Tides and Currents Weather Stations Pressure Air Temp Water Temp Dewpoint Dewpoint Depression Visibility Wind Speed Wind Dir Waves Ship Positions

Maersk Volta

Last reported at 2018-Feb-10 16:55 UTC. Time now 2018-Feb-24 02:38 UTC.
Position N 28°27' W 013°21'.
Warning: this ship's position is 13 days out of date.

Length 176 m; draft 9.2 m.

Type: Cargo ship. MMSI: 563430000.

Date/timePositionNaut miles runAvg speedWind from/ knotsBaromVisibWave heightAir tempDewpointWater temp
2018-Feb-10 16:55N 28°27' W 013°21'610.3
2018-Feb-10 16:19N 28°32' W 013°17'310.4
2018-Feb-10 16:01N 28°34' W 013°15'510.5
2018-Feb-10 15:30N 28°39' W 013°12'  
2018-Feb-08 02:30N 36°01' W 005°25'7 0.4
2018-Feb-07 06:54N 36°08' W 005°26'0 0.0
2018-Feb-07 06:30N 36°08' W 005°26'1 2.1
2018-Feb-07 05:56N 36°09' W 005°25'0 0.0
2018-Feb-07 03:24N 36°09' W 005°25'0 0.0
2018-Feb-07 01:42N 36°09' W 005°25'0 0.1
2018-Feb-07 01:30N 36°09' W 005°25'0 0.0
2018-Feb-06 23:06N 36°09' W 005°25'0 0.0
2018-Feb-06 06:26N 36°09' W 005°25'3 7.1
2018-Feb-06 06:00N 36°06' W 005°24'4 7.8
2018-Feb-06 05:30N 36°04' W 005°21'3 5.2
2018-Feb-06 05:00N 36°03' W 005°17'3 6.1
2018-Feb-06 04:30N 36°04' W 005°21'3 5.5
2018-Feb-06 04:00N 36°02' W 005°22'3 6.5
2018-Feb-06 03:30N 35°59' W 005°24'5 8.4
2018-Feb-06 02:56N 35°57' W 005°29'64613.3
2018-Feb-04 02:11N 28°57' W 015°10'412.3
2018-Feb-04 01:52N 28°54' W 015°14'412.3
2018-Feb-04 01:30N 28°52' W 015°18'612.0
2018-Feb-04 01:00N 28°49' W 015°24'611.9
2018-Feb-04 00:30N 28°47' W 015°30'611.6
2018-Feb-04 00:00N 28°44' W 015°36'611.7
2018-Feb-03 23:30N 28°41' W 015°42'1011.8
2018-Feb-03 22:41N 28°35' W 015°51'211.7
2018-Feb-03 22:30N 28°34' W 015°53'611.9
2018-Feb-03 22:00N 28°32' W 015°59'611.8
2018-Feb-03 21:30N 28°30' W 016°05'611.7
2018-Feb-03 21:00N 28°27' W 016°12'2 5.0
2018-Feb-03 20:30N 28°29' W 016°13'0 0.0
2018-Feb-03 19:59N 28°29' W 016°13'0 0.0
2018-Feb-03 18:29N 28°29' W 016°13'0 0.0
2018-Feb-03 17:59N 28°29' W 016°13'0 0.0
2018-Feb-03 17:29N 28°29' W 016°13'0 0.0
2018-Feb-03 16:59N 28°29' W 016°13'0 0.0
2018-Feb-03 15:59N 28°29' W 016°13'0 0.0
2018-Feb-03 15:29N 28°29' W 016°13'0 0.0
2018-Feb-03 14:59N 28°29' W 016°13'0 0.0
2018-Feb-03 14:29N 28°29' W 016°13'0 0.0
2018-Feb-03 13:59N 28°29' W 016°13'0 0.0
2018-Feb-03 13:29N 28°29' W 016°13'0 0.0
2018-Feb-03 12:59N 28°29' W 016°13'0 0.0
2018-Feb-03 12:23N 28°29' W 016°13'0 0.0
2018-Feb-03 11:59N 28°29' W 016°13'0 0.0
2018-Feb-03 11:29N 28°29' W 016°13'0 0.0
2018-Feb-03 10:59N 28°29' W 016°13'0 0.0
2018-Feb-03 10:29N 28°29' W 016°13'0 0.0
2018-Feb-03 09:59N 28°29' W 016°13'0 0.1
2018-Feb-03 09:29N 28°29' W 016°13'0 0.0
2018-Feb-03 08:59N 28°29' W 016°13'0 0.0
2018-Feb-03 08:29N 28°29' W 016°13'0 0.0
2018-Feb-03 07:59N 28°29' W 016°13'0 0.1
2018-Feb-03 06:30N 28°29' W 016°14'2 3.6
2018-Feb-03 06:00N 28°27' W 016°13'2 4.3
2018-Feb-03 05:30N 28°26' W 016°11'4 8.4
2018-Feb-03 05:00N 28°25' W 016°07'9 8.9
2018-Feb-03 04:00N 28°20' W 015°58'3 5.9
2018-Feb-03 03:30N 28°18' W 015°58'14 8.9
2018-Feb-03 01:55N 28°07' W 016°08'  
Track history (hours):
 
Tides and Currents Weather Stations Pressure Air Temp Water Temp Dewpoint Dewpoint Depression Visibility Wind Speed Wind Dir Waves Ship Positions

Maersk Volta

Last reported at 2018-Feb-10 16:55 UTC. Time now 2018-Feb-24 02:38 UTC.
Position N 28°27' W 013°21'.
Warning: this ship's position is 13 days out of date.

Length 176 m; draft 9.2 m.

Type: Cargo ship. MMSI: 563430000.

Date/timePositionNaut miles runAvg speedWind from/ knotsBaromVisibWave heightAir tempDewpointWater temp
2018-Feb-10 16:55N 28°27' W 013°21'610.3
2018-Feb-10 16:19N 28°32' W 013°17'310.4
2018-Feb-10 16:01N 28°34' W 013°15'510.5
2018-Feb-10 15:30N 28°39' W 013°12'  
2018-Feb-08 02:30N 36°01' W 005°25'7 0.4
2018-Feb-07 06:54N 36°08' W 005°26'0 0.0
2018-Feb-07 06:30N 36°08' W 005°26'1 2.1
2018-Feb-07 05:56N 36°09' W 005°25'0 0.0
2018-Feb-07 03:24N 36°09' W 005°25'0 0.0
2018-Feb-07 01:42N 36°09' W 005°25'0 0.1
2018-Feb-07 01:30N 36°09' W 005°25'0 0.0
2018-Feb-06 23:06N 36°09' W 005°25'0 0.0
2018-Feb-06 06:26N 36°09' W 005°25'3 7.1
2018-Feb-06 06:00N 36°06' W 005°24'4 7.8
2018-Feb-06 05:30N 36°04' W 005°21'3 5.2
2018-Feb-06 05:00N 36°03' W 005°17'3 6.1
2018-Feb-06 04:30N 36°04' W 005°21'3 5.5
2018-Feb-06 04:00N 36°02' W 005°22'3 6.5
2018-Feb-06 03:30N 35°59' W 005°24'5 8.4
2018-Feb-06 02:56N 35°57' W 005°29'64613.3
2018-Feb-04 02:11N 28°57' W 015°10'412.3
2018-Feb-04 01:52N 28°54' W 015°14'412.3
2018-Feb-04 01:30N 28°52' W 015°18'612.0
2018-Feb-04 01:00N 28°49' W 015°24'611.9
2018-Feb-04 00:30N 28°47' W 015°30'611.6
2018-Feb-04 00:00N 28°44' W 015°36'611.7
2018-Feb-03 23:30N 28°41' W 015°42'1011.8
2018-Feb-03 22:41N 28°35' W 015°51'211.7
2018-Feb-03 22:30N 28°34' W 015°53'611.9
2018-Feb-03 22:00N 28°32' W 015°59'611.8
2018-Feb-03 21:30N 28°30' W 016°05'611.7
2018-Feb-03 21:00N 28°27' W 016°12'2 5.0
2018-Feb-03 20:30N 28°29' W 016°13'0 0.0
2018-Feb-03 19:59N 28°29' W 016°13'0 0.0
2018-Feb-03 18:29N 28°29' W 016°13'0 0.0
2018-Feb-03 17:59N 28°29' W 016°13'0 0.0
2018-Feb-03 17:29N 28°29' W 016°13'0 0.0
2018-Feb-03 16:59N 28°29' W 016°13'0 0.0
2018-Feb-03 15:59N 28°29' W 016°13'0 0.0
2018-Feb-03 15:29N 28°29' W 016°13'0 0.0
2018-Feb-03 14:59N 28°29' W 016°13'0 0.0
2018-Feb-03 14:29N 28°29' W 016°13'0 0.0
2018-Feb-03 13:59N 28°29' W 016°13'0 0.0
2018-Feb-03 13:29N 28°29' W 016°13'0 0.0
2018-Feb-03 12:59N 28°29' W 016°13'0 0.0
2018-Feb-03 12:23N 28°29' W 016°13'0 0.0
2018-Feb-03 11:59N 28°29' W 016°13'0 0.0
2018-Feb-03 11:29N 28°29' W 016°13'0 0.0
2018-Feb-03 10:59N 28°29' W 016°13'0 0.0
2018-Feb-03 10:29N 28°29' W 016°13'0 0.0
2018-Feb-03 09:59N 28°29' W 016°13'0 0.1
2018-Feb-03 09:29N 28°29' W 016°13'0 0.0
2018-Feb-03 08:59N 28°29' W 016°13'0 0.0
2018-Feb-03 08:29N 28°29' W 016°13'0 0.0
2018-Feb-03 07:59N 28°29' W 016°13'0 0.1
2018-Feb-03 06:30N 28°29' W 016°14'2 3.6
2018-Feb-03 06:00N 28°27' W 016°13'2 4.3
2018-Feb-03 05:30N 28°26' W 016°11'4 8.4
2018-Feb-03 05:00N 28°25' W 016°07'9 8.9
2018-Feb-03 04:00N 28°20' W 015°58'3 5.9
2018-Feb-03 03:30N 28°18' W 015°58'14 8.9
2018-Feb-03 01:55N 28°07' W 016°08'  

Dump ship's entire track history